Time,TemperatureF,DewpointF,PressureIn,WindDirection,WindDirectionDegrees,WindSpeedMPH,WindSpeedGustMPH,Humidity,HourlyPrecipIn,Conditions,Clouds,dailyrainin,SoftwareType,DateUTC
2013-03-24 00:03:00,51.0,51.0,29.91,South,182,4.0,-999.0,100,-99.99,,,-99.99,,2013-03-24 04:03:00,
2013-03-24 00:13:00,51.0,51.0,29.91,South,182,4.0,-999.0,100,-99.99,,,-99.99,,2013-03-24 04:13:00,
2013-03-24 00:23:00,51.0,51.0,29.90,SW,219,4.0,-999.0,100,-99.99,,,-99.99,,2013-03-24 04:23:00,
2013-03-24 00:33:00,52.0,52.0,29.90,SSE,163,2.0,-999.0,100,-99.99,,,-99.99,,2013-03-24 04:33:00,
2013-03-24 00:43:00,52.0,52.0,29.90,SSE,163,2.0,-999.0,100,-99.99,,,-99.99,,2013-03-24 04:43:00,
2013-03-24 00:53:00,52.0,52.0,29.91,SSE,161,3.0,-999.0,100,-99.99,,,-99.99,,2013-03-24 04:53:00,
2013-03-24 01:03:00,52.0,52.0,29.89,SW,219,3.0,-999.0,100,-99.99,,,-99.99,,2013-03-24 05:03:00,
2013-03-24 01:13:00,52.0,52.0,29.89,SW,219,3.0,-999.0,100,-99.99,,,-99.99,,2013-03-24 05:13:00,
2013-03-24 01:23:00,52.0,52.0,29.88,SSW,211,3.0,-999.0,100,-99.99,,,-99.99,,2013-03-24 05:23:00,
2013-03-24 01:32:00,53.0,53.0,29.88,South,178,2.0,-999.0,100,-99.99,,,-99.99,,2013-03-24 05:32:00,
2013-03-24 01:43:00,53.0,53.0,29.88,South,178,2.0,-999.0,100,-99.99,,,-99.99,,2013-03-24 05:43:00,
2013-03-24 01:52:00,53.0,53.0,29.85,SSW,198,3.0,-999.0,100,-99.99,,,-99.99,,2013-03-24 05:52:00,
2013-03-24 02:02:00,53.0,53.0,29.85,South,187,5.0,-999.0,100,-99.99,,,-99.99,,2013-03-24 06:02:00,
2013-03-24 02:12:00,53.0,53.0,29.85,South,187,5.0,-999.0,100,-99.99,,,-99.99,,2013-03-24 06:12:00,
2013-03-24 02:22:00,53.0,53.0,29.85,South,186,5.0,-999.0,100,-99.99,,,-99.99,,2013-03-24 06:22:00,
2013-03-24 02:32:00,53.0,53.0,29.84,SSW,213,4.0,-999.0,100,-99.99,,,-99.99,,2013-03-24 06:32:00,
2013-03-24 02:42:00,53.0,53.0,29.84,SSW,213,4.0,-999.0,100,-99.99,,,-99.99,,2013-03-24 06:42:00,
2013-03-24 02:52:00,53.0,53.0,29.84,SSW,213,4.0,-999.0,100,-99.99,,,-99.99,,2013-03-24 06:52:00,
2013-03-24 03:02:00,53.0,53.0,29.85,South,182,4.0,-999.0,100,-99.99,,,-99.99,,2013-03-24 07:02:00,
2013-03-24 03:12:00,53.0,53.0,29.85,South,182,4.0,-999.0,100,-99.99,,,-99.99,,2013-03-24 07:12:00,
2013-03-24 03:22:00,54.0,54.0,29.80,East,82,6.0,-999.0,100,-99.99,,,-99.99,,2013-03-24 07:22:00,
2013-03-24 03:32:00,54.0,54.0,29.79,SSW,213,6.0,-999.0,100,-99.99,,,-99.99,,2013-03-24 07:32:00,
2013-03-24 03:42:00,54.0,54.0,29.79,SSW,213,6.0,-999.0,100,-99.99,,,-99.99,,2013-03-24 07:42:00,
2013-03-24 04:03:00,55.0,55.0,29.78,West,260,5.0,-999.0,100,-99.99,,,-99.99,,2013-03-24 08:03:00,
2013-03-24 04:12:00,55.0,55.0,29.78,West,260,5.0,-999.0,100,-99.99,,,-99.99,,2013-03-24 08:12:00,
2013-03-24 04:22:00,55.0,55.0,29.80,SSW,197,5.0,-999.0,100,-99.99,,,-99.99,,2013-03-24 08:22:00,
2013-03-24 04:32:00,55.0,55.0,29.78,SSE,167,5.0,-999.0,100,-99.99,,,-99.99,,2013-03-24 08:32:00,
2013-03-24 04:42:00,55.0,55.0,29.78,SSE,167,5.0,-999.0,100,-99.99,,,-99.99,,2013-03-24 08:42:00,
2013-03-24 04:52:00,55.0,55.0,29.75,SSW,211,7.0,-999.0,100,-99.99,,,-99.99,,2013-03-24 08:52:00,
2013-03-24 05:02:00,55.0,55.0,29.72,WSW,242,8.0,-999.0,100,-99.99,,,-99.99,,2013-03-24 09:02:00,
2013-03-24 05:12:00,55.0,55.0,29.72,WSW,242,8.0,-999.0,100,-99.99,,,-99.99,,2013-03-24 09:12:00,
2013-03-24 05:22:00,55.0,55.0,29.72,SW,223,6.0,-999.0,100,-99.99,,,-99.99,,2013-03-24 09:22:00,
2013-03-24 05:33:00,55.0,55.0,29.70,SW,225,8.0,-999.0,100,-99.99,,,-99.99,,2013-03-24 09:33:00,
2013-03-24 05:42:00,55.0,55.0,29.70,SW,225,8.0,-999.0,100,-99.99,,,-99.99,,2013-03-24 09:42:00,
2013-03-24 05:52:00,55.0,55.0,29.67,WSW,245,7.0,-999.0,100,-99.99,,,-99.99,,2013-03-24 09:52:00,
2013-03-24 06:03:00,56.0,56.0,29.71,SSE,148,6.0,-999.0,100,-99.99,,,-99.99,,2013-03-24 10:03:00,
2013-03-24 06:12:00,56.0,56.0,29.71,SSE,148,6.0,-999.0,100,-99.99,,,-99.99,,2013-03-24 10:12:00,
2013-03-24 06:23:00,57.0,57.0,29.68,SW,232,7.0,-999.0,100,-99.99,,,-99.99,,2013-03-24 10:23:00,
2013-03-24 06:33:00,57.0,57.0,29.68,WSW,246,5.0,-999.0,100,-99.99,,,-99.99,,2013-03-24 10:33:00,
2013-03-24 06:42:00,57.0,57.0,29.68,WSW,246,5.0,-999.0,100,-99.99,,,-99.99,,2013-03-24 10:42:00,
2013-03-24 06:52:00,57.0,57.0,29.64,SW,234,7.0,-999.0,100,-99.99,,,-99.99,,2013-03-24 10:52:00,
2013-03-24 07:03:00,57.0,57.0,29.61,SSW,209,9.0,-999.0,100,-99.99,,,-99.99,,2013-03-24 11:03:00,
2013-03-24 07:12:00,57.0,57.0,29.61,SSW,209,9.0,-999.0,100,-99.99,,,-99.99,,2013-03-24 11:12:00,
2013-03-24 07:22:00,57.0,57.0,29.60,West,259,7.0,-999.0,100,-99.99,,,-99.99,,2013-03-24 11:22:00,
2013-03-24 07:33:00,57.0,57.0,29.62,SW,222,7.0,-999.0,100,-99.99,,,-99.99,,2013-03-24 11:33:00,
2013-03-24 07:42:00,57.0,57.0,29.62,SW,222,7.0,-999.0,100,-99.99,,,-99.99,,2013-03-24 11:42:00,
2013-03-24 07:52:00,61.0,61.0,29.59,West,270,7.0,-999.0,100,-99.99,,,-99.99,,2013-03-24 11:52:00,
2013-03-24 08:03:00,57.0,57.0,29.64,SSE,163,12.0,-999.0,100,-99.99,,,-99.99,,2013-03-24 12:03:00,
2013-03-24 08:12:00,57.0,57.0,29.64,SSE,163,12.0,-999.0,100,-99.99,,,-99.99,,2013-03-24 12:12:00,
2013-03-24 08:22:00,56.0,56.0,29.62,SW,234,8.0,-999.0,100,-99.99,,,-99.99,,2013-03-24 12:22:00,
2013-03-24 08:32:00,55.0,55.0,29.61,SSW,209,10.0,-999.0,100,-99.99,,,-99.99,,2013-03-24 12:32:00,
2013-03-24 08:42:00,55.0,55.0,29.61,SSW,209,10.0,-999.0,100,-99.99,,,-99.99,,2013-03-24 12:42:00,
2013-03-24 08:52:00,55.0,55.0,29.61,SSW,209,10.0,-999.0,100,-99.99,,,-99.99,,2013-03-24 12:52:00,
2013-03-24 09:02:00,55.0,55.0,29.60,SSW,200,11.0,-999.0,100,-99.99,,,-99.99,,2013-03-24 13:02:00,
2013-03-24 09:13:00,55.0,55.0,29.60,SSW,200,11.0,-999.0,100,-99.99,,,-99.99,,2013-03-24 13:13:00,
2013-03-24 09:23:00,55.0,55.0,29.65,SE,131,11.0,-999.0,100,-99.99,,,-99.99,,2013-03-24 13:23:00,
2013-03-24 09:32:00,54.0,54.0,29.70,SSE,166,11.0,-999.0,100,-99.99,,,-99.99,,2013-03-24 13:32:00,
2013-03-24 09:42:00,54.0,54.0,29.70,SSE,166,11.0,-999.0,100,-99.99,,,-99.99,,2013-03-24 13:42:00,
2013-03-24 09:52:00,53.0,53.0,29.66,SE,132,12.0,-999.0,100,-99.99,,,-99.99,,2013-03-24 13:52:00,
2013-03-24 10:02:00,53.0,53.0,29.65,South,179,8.0,-999.0,100,-99.99,,,-99.99,,2013-03-24 14:02:00,
2013-03-24 10:13:00,53.0,53.0,29.65,South,179,8.0,-999.0,100,-99.99,,,-99.99,,2013-03-24 14:13:00,
2013-03-24 10:22:00,53.0,53.0,29.65,SSE,150,9.0,-999.0,100,-99.99,,,-99.99,,2013-03-24 14:22:00,
2013-03-24 10:33:00,53.0,53.0,29.65,South,180,7.0,-999.0,100,-99.99,,,-99.99,,2013-03-24 14:33:00,
2013-03-24 10:42:00,53.0,53.0,29.65,South,180,7.0,-999.0,100,-99.99,,,-99.99,,2013-03-24 14:42:00,
2013-03-24 10:52:00,53.0,53.0,29.66,South,169,9.0,-999.0,100,-99.99,,,-99.99,,2013-03-24 14:52:00,
2013-03-24 11:02:00,53.0,53.0,29.63,South,189,7.0,-999.0,100,-99.99,,,-99.99,,2013-03-24 15:02:00,
2013-03-24 11:13:00,53.0,53.0,29.63,South,189,7.0,-999.0,100,-99.99,,,-99.99,,2013-03-24 15:13:00,
2013-03-24 11:22:00,54.0,54.0,29.64,WSW,248,8.0,-999.0,100,-99.99,,,-99.99,,2013-03-24 15:22:00,
2013-03-24 11:33:00,54.0,54.0,29.64,SW,227,8.0,-999.0,100,-99.99,,,-99.99,,2013-03-24 15:33:00,
2013-03-24 11:43:00,54.0,54.0,29.64,SW,227,8.0,-999.0,100,-99.99,,,-99.99,,2013-03-24 15:43:00,
2013-03-24 11:53:00,55.0,55.0,29.62,WSW,248,7.0,-999.0,100,-99.99,,,-99.99,,2013-03-24 15:53:00,
2013-03-24 12:03:00,55.0,55.0,29.60,West,276,10.0,-999.0,100,-99.99,,,-99.99,,2013-03-24 16:03:00,
2013-03-24 12:13:00,55.0,55.0,29.60,West,276,10.0,-999.0,100,-99.99,,,-99.99,,2013-03-24 16:13:00,
2013-03-24 12:23:00,57.0,57.0,29.58,WSW,254,7.0,-999.0,100,-99.99,,,-99.99,,2013-03-24 16:23:00,
2013-03-24 12:33:00,57.0,57.0,29.56,SSW,212,6.0,-999.0,100,-99.99,,,-99.99,,2013-03-24 16:33:00,
2013-03-24 12:43:00,57.0,57.0,29.56,SSW,212,6.0,-999.0,100,-99.99,,,-99.99,,2013-03-24 16:43:00,
2013-03-24 12:52:00,57.0,57.0,29.56,SSW,212,6.0,-999.0,100,-99.99,,,-99.99,,2013-03-24 16:52:00,
2013-03-24 13:03:00,58.0,58.0,29.54,WNW,293,5.0,-999.0,100,-99.99,,,-99.99,,2013-03-24 17:03:00,
2013-03-24 13:12:00,58.0,58.0,29.54,WNW,293,5.0,-999.0,100,-99.99,,,-99.99,,2013-03-24 17:12:00,
2013-03-24 13:23:00,60.0,60.0,29.53,NW,309,4.0,-999.0,100,-99.99,,,-99.99,,2013-03-24 17:23:00,
2013-03-24 13:33:00,60.0,60.0,29.53,NW,309,4.0,-999.0,100,-99.99,,,-99.99,,2013-03-24 17:33:00,
2013-03-24 13:42:00,60.0,60.0,29.53,NW,309,4.0,-999.0,100,-99.99,,,-99.99,,2013-03-24 17:42:00,
2013-03-24 13:52:00,61.0,61.0,29.53,WNW,290,3.0,-999.0,100,-99.99,,,-99.99,,2013-03-24 17:52:00,
2013-03-24 14:03:00,61.0,61.0,29.52,North,355,1.0,-999.0,100,-99.99,,,-99.99,,2013-03-24 18:03:00,
2013-03-24 14:12:00,61.0,61.0,29.52,North,355,1.0,-999.0,100,-99.99,,,-99.99,,2013-03-24 18:12:00,
2013-03-24 14:22:00,61.0,61.0,29.50,North,355,2.0,-999.0,100,-99.99,,,-99.99,,2013-03-24 18:22:00,
2013-03-24 14:33:00,62.0,62.0,29.50,North,355,2.0,-999.0,100,-99.99,,,-99.99,,2013-03-24 18:33:00,
2013-03-24 14:43:00,62.0,62.0,29.50,North,355,2.0,-999.0,100,-99.99,,,-99.99,,2013-03-24 18:43:00,
2013-03-24 14:52:00,64.0,64.0,29.48,NW,323,3.0,-999.0,100,-99.99,,,-99.99,,2013-03-24 18:52:00,
2013-03-24 15:03:00,67.0,67.0,29.48,NE,34,6.0,-999.0,100,-99.99,,,-99.99,,2013-03-24 19:03:00,
2013-03-24 15:12:00,67.0,67.0,29.48,NE,34,6.0,-999.0,100,-99.99,,,-99.99,,2013-03-24 19:12:00,
2013-03-24 15:22:00,65.0,65.0,29.49,NE,50,6.0,-999.0,100,-99.99,,,-99.99,,2013-03-24 19:22:00,
2013-03-24 15:32:00,65.0,65.0,29.49,NE,44,5.0,-999.0,100,-99.99,,,-99.99,,2013-03-24 19:32:00,
2013-03-24 15:43:00,65.0,65.0,29.49,NE,44,5.0,-999.0,100,-99.99,,,-99.99,,2013-03-24 19:43:00,
2013-03-24 15:52:00,66.0,66.0,29.50,ESE,105,6.0,-999.0,100,-99.99,,,-99.99,,2013-03-24 19:52:00,
2013-03-24 16:03:00,65.0,65.0,29.50,East,80,6.0,-999.0,100,-99.99,,,-99.99,,2013-03-24 20:03:00,
2013-03-24 16:12:00,65.0,65.0,29.50,East,80,6.0,-999.0,100,-99.99,,,-99.99,,2013-03-24 20:12:00,
2013-03-24 16:22:00,63.0,63.0,29.50,ESE,111,6.0,-999.0,100,-99.99,,,-99.99,,2013-03-24 20:22:00,
2013-03-24 16:32:00,64.0,64.0,29.49,ENE,69,4.0,-999.0,100,-99.99,,,-99.99,,2013-03-24 20:32:00,
2013-03-24 16:43:00,64.0,64.0,29.49,ENE,69,4.0,-999.0,100,-99.99,,,-99.99,,2013-03-24 20:43:00,
2013-03-24 16:53:00,63.0,63.0,29.50,NE,55,4.0,-999.0,100,-99.99,,,-99.99,,2013-03-24 20:53:00,
2013-03-24 17:03:00,61.0,61.0,29.51,ENE,78,6.0,-999.0,100,-99.99,,,-99.99,,2013-03-24 21:03:00,
2013-03-24 17:12:00,61.0,61.0,29.51,ENE,78,6.0,-999.0,100,-99.99,,,-99.99,,2013-03-24 21:12:00,
2013-03-24 17:22:00,60.0,60.0,29.52,East,84,5.0,-999.0,100,-99.99,,,-99.99,,2013-03-24 21:22:00,
2013-03-24 17:33:00,59.0,59.0,29.52,SE,135,5.0,-999.0,100,-99.99,,,-99.99,,2013-03-24 21:33:00,
2013-03-24 17:43:00,59.0,59.0,29.52,SE,135,5.0,-999.0,100,-99.99,,,-99.99,,2013-03-24 21:43:00,
2013-03-24 17:53:00,58.0,58.0,29.54,East,80,4.0,-999.0,100,-99.99,,,-99.99,,2013-03-24 21:53:00,
2013-03-24 18:03:00,57.0,57.0,29.54,East,87,5.0,-999.0,100,-99.99,,,-99.99,,2013-03-24 22:03:00,
2013-03-24 18:13:00,57.0,57.0,29.54,East,87,5.0,-999.0,100,-99.99,,,-99.99,,2013-03-24 22:13:00,
2013-03-24 18:23:00,56.0,56.0,29.55,ESE,108,4.0,-999.0,100,-99.99,,,-99.99,,2013-03-24 22:23:00,
2013-03-24 18:33:00,55.0,55.0,29.56,ENE,59,5.0,-999.0,100,-99.99,,,-99.99,,2013-03-24 22:33:00,
2013-03-24 18:43:00,55.0,55.0,29.56,ENE,59,5.0,-999.0,100,-99.99,,,-99.99,,2013-03-24 22:43:00,
2013-03-24 18:52:00,55.0,55.0,29.57,East,93,5.0,-999.0,100,-99.99,,,-99.99,,2013-03-24 22:52:00,
2013-03-24 19:03:00,54.0,54.0,29.57,ENE,67,6.0,-999.0,100,-99.99,,,-99.99,,2013-03-24 23:03:00,
2013-03-24 19:12:00,54.0,54.0,29.57,ENE,67,6.0,-999.0,100,-99.99,,,-99.99,,2013-03-24 23:12:00,
2013-03-24 19:22:00,54.0,54.0,29.58,ESE,123,5.0,-999.0,100,-99.99,,,-99.99,,2013-03-24 23:22:00,
2013-03-24 19:32:00,54.0,54.0,29.58,ESE,104,6.0,-999.0,100,-99.99,,,-99.99,,2013-03-24 23:32:00,
2013-03-24 19:42:00,54.0,54.0,29.58,ESE,104,6.0,-999.0,100,-99.99,,,-99.99,,2013-03-24 23:42:00,
2013-03-24 19:52:00,53.0,53.0,29.59,NE,35,6.0,-999.0,100,-99.99,,,-99.99,,2013-03-24 23:52:00,
2013-03-24 20:02:00,53.0,53.0,29.60,ENE,76,4.0,-999.0,100,-99.99,,,-99.99,,2013-03-25 00:02:00,
2013-03-24 20:12:00,53.0,53.0,29.60,ENE,76,4.0,-999.0,100,-99.99,,,-99.99,,2013-03-25 00:12:00,
2013-03-24 20:22:00,52.0,52.0,29.60,East,98,4.0,-999.0,100,-99.99,,,-99.99,,2013-03-25 00:22:00,
2013-03-24 20:32:00,52.0,52.0,29.61,SE,132,3.0,-999.0,100,-99.99,,,-99.99,,2013-03-25 00:32:00,
2013-03-24 20:42:00,52.0,52.0,29.61,SE,132,3.0,-999.0,100,-99.99,,,-99.99,,2013-03-25 00:42:00,
2013-03-24 20:52:00,52.0,52.0,29.62,SE,130,4.0,-999.0,100,-99.99,,,-99.99,,2013-03-25 00:52:00,
2013-03-24 21:02:00,51.0,51.0,29.61,SSE,148,6.0,-999.0,100,-99.99,,,-99.99,,2013-03-25 01:02:00,
2013-03-24 21:12:00,51.0,51.0,29.61,SSE,148,6.0,-999.0,100,-99.99,,,-99.99,,2013-03-25 01:12:00,
2013-03-24 21:22:00,51.0,51.0,29.62,SE,126,6.0,-999.0,100,-99.99,,,-99.99,,2013-03-25 01:22:00,
2013-03-24 21:32:00,50.0,50.0,29.62,SSE,159,5.0,-999.0,100,-99.99,,,-99.99,,2013-03-25 01:32:00,
2013-03-24 21:42:00,50.0,50.0,29.62,SSE,159,5.0,-999.0,100,-99.99,,,-99.99,,2013-03-25 01:42:00,
2013-03-24 21:52:00,50.0,50.0,29.63,NE,43,6.0,-999.0,100,-99.99,,,-99.99,,2013-03-25 01:52:00,
2013-03-24 22:02:00,50.0,50.0,29.63,SE,128,6.0,-999.0,100,-99.99,,,-99.99,,2013-03-25 02:02:00,
2013-03-24 22:12:00,50.0,50.0,29.63,SE,128,6.0,-999.0,100,-99.99,,,-99.99,,2013-03-25 02:12:00,
2013-03-24 22:22:00,50.0,50.0,29.63,SE,128,6.0,-999.0,100,-99.99,,,-99.99,,2013-03-25 02:22:00,
2013-03-24 22:33:00,49.0,49.0,29.62,ESE,118,5.0,-999.0,100,-99.99,,,-99.99,,2013-03-25 02:33:00,
2013-03-24 22:42:00,49.0,49.0,29.62,ESE,118,5.0,-999.0,100,-99.99,,,-99.99,,2013-03-25 02:42:00,
2013-03-24 22:52:00,49.0,49.0,29.62,SSE,148,3.0,-999.0,100,-99.99,,,-99.99,,2013-03-25 02:52:00,
2013-03-24 23:03:00,49.0,49.0,29.62,SSE,153,3.0,-999.0,100,-99.99,,,-99.99,,2013-03-25 03:03:00,
2013-03-24 23:13:00,49.0,49.0,29.62,SSE,153,3.0,-999.0,100,-99.99,,,-99.99,,2013-03-25 03:13:00,
2013-03-24 23:23:00,49.0,49.0,29.62,SSE,156,1.0,-999.0,100,-99.99,,,-99.99,,2013-03-25 03:23:00,
2013-03-24 23:34:00,48.0,48.0,29.62,SSE,164,1.0,-999.0,100,-99.99,,,-99.99,,2013-03-25 03:34:00,
2013-03-24 23:43:00,48.0,48.0,29.62,SSE,164,1.0,-999.0,100,-99.99,,,-99.99,,2013-03-25 03:43:00,
2013-03-24 23:53:00,48.0,48.0,29.62,SSE,163,0.0,-999.0,100,-99.99,,,-99.99,,2013-03-25 03:53:00,